sensor_id;sensor_type;location;lat;lon;timestamp;temperature;humidity
7516;DHT22;3799;47.184;8.538;2023-08-31T00:00:12;15.50;99.90
7516;DHT22;3799;47.184;8.538;2023-08-31T00:02:40;15.10;99.90
7516;DHT22;3799;47.184;8.538;2023-08-31T00:05:08;15.50;99.90
7516;DHT22;3799;47.184;8.538;2023-08-31T00:07:35;15.20;99.90
7516;DHT22;3799;47.184;8.538;2023-08-31T00:10:03;15.10;99.90
7516;DHT22;3799;47.184;8.538;2023-08-31T00:12:36;15.10;99.90
7516;DHT22;3799;47.184;8.538;2023-08-31T00:15:06;15.30;99.90
7516;DHT22;3799;47.184;8.538;2023-08-31T00:17:39;15.40;99.90
7516;DHT22;3799;47.184;8.538;2023-08-31T00:20:07;15.30;99.90
7516;DHT22;3799;47.184;8.538;2023-08-31T00:22:35;15.40;99.90
7516;DHT22;3799;47.184;8.538;2023-08-31T00:25:03;15.50;99.90
7516;DHT22;3799;47.184;8.538;2023-08-31T00:27:46;15.50;99.90
7516;DHT22;3799;47.184;8.538;2023-08-31T00:30:15;15.50;99.90
7516;DHT22;3799;47.184;8.538;2023-08-31T00:32:43;15.50;99.90
7516;DHT22;3799;47.184;8.538;2023-08-31T00:35:10;15.50;99.90
7516;DHT22;3799;47.184;8.538;2023-08-31T00:37:41;15.50;99.90
7516;DHT22;3799;47.184;8.538;2023-08-31T00:40:08;15.50;99.90
7516;DHT22;3799;47.184;8.538;2023-08-31T00:42:36;15.60;99.90
7516;DHT22;3799;47.184;8.538;2023-08-31T00:45:04;15.30;99.90
7516;DHT22;3799;47.184;8.538;2023-08-31T00:47:33;15.40;99.90
7516;DHT22;3799;47.184;8.538;2023-08-31T00:50:00;15.40;99.90
7516;DHT22;3799;47.184;8.538;2023-08-31T00:52:28;15.50;99.90
7516;DHT22;3799;47.184;8.538;2023-08-31T00:54:56;15.20;99.90
7516;DHT22;3799;47.184;8.538;2023-08-31T00:57:23;15.40;99.90
7516;DHT22;3799;47.184;8.538;2023-08-31T00:59:53;15.40;99.90
7516;DHT22;3799;47.184;8.538;2023-08-31T01:02:40;15.20;99.90
7516;DHT22;3799;47.184;8.538;2023-08-31T01:05:33;15.30;99.90
7516;DHT22;3799;47.184;8.538;2023-08-31T01:14:20;15.30;99.90
7516;DHT22;3799;47.184;8.538;2023-08-31T01:16:53;15.20;99.90
7516;DHT22;3799;47.184;8.538;2023-08-31T01:19:47;15.30;99.90
7516;DHT22;3799;47.184;8.538;2023-08-31T01:22:40;15.10;99.90
7516;DHT22;3799;47.184;8.538;2023-08-31T01:25:10;15.20;99.90
7516;DHT22;3799;47.184;8.538;2023-08-31T01:27:39;15.30;99.90
7516;DHT22;3799;47.184;8.538;2023-08-31T01:30:07;15.40;99.90
7516;DHT22;3799;47.184;8.538;2023-08-31T01:32:36;15.00;99.90
7516;DHT22;3799;47.184;8.538;2023-08-31T01:35:05;15.20;99.90
7516;DHT22;3799;47.184;8.538;2023-08-31T01:37:58;15.20;99.90
7516;DHT22;3799;47.184;8.538;2023-08-31T01:40:42;15.40;99.90
7516;DHT22;3799;47.184;8.538;2023-08-31T01:43:31;15.00;99.90
7516;DHT22;3799;47.184;8.538;2023-08-31T01:46:00;15.30;99.90
7516;DHT22;3799;47.184;8.538;2023-08-31T01:48:28;15.20;99.90
7516;DHT22;3799;47.184;8.538;2023-08-31T01:51:03;15.20;99.90
7516;DHT22;3799;47.184;8.538;2023-08-31T01:53:46;15.00;99.90
7516;DHT22;3799;47.184;8.538;2023-08-31T01:56:16;15.10;99.90
7516;DHT22;3799;47.184;8.538;2023-08-31T01:58:44;14.70;99.90
7516;DHT22;3799;47.184;8.538;2023-08-31T02:01:14;14.80;99.90
7516;DHT22;3799;47.184;8.538;2023-08-31T02:03:42;15.10;99.90
7516;DHT22;3799;47.184;8.538;2023-08-31T02:06:12;15.10;99.90
7516;DHT22;3799;47.184;8.538;2023-08-31T02:08:39;14.90;99.90
7516;DHT22;3799;47.184;8.538;2023-08-31T02:11:09;14.90;99.90
7516;DHT22;3799;47.184;8.538;2023-08-31T02:13:37;15.10;99.90
7516;DHT22;3799;47.184;8.538;2023-08-31T02:16:04;15.00;99.90
7516;DHT22;3799;47.184;8.538;2023-08-31T02:18:31;15.00;99.90
7516;DHT22;3799;47.184;8.538;2023-08-31T02:20:59;15.20;99.90
7516;DHT22;3799;47.184;8.538;2023-08-31T02:23:29;15.10;99.90
7516;DHT22;3799;47.184;8.538;2023-08-31T02:25:56;15.20;99.90
7516;DHT22;3799;47.184;8.538;2023-08-31T02:28:23;15.30;99.90
7516;DHT22;3799;47.184;8.538;2023-08-31T02:30:58;15.00;99.90
7516;DHT22;3799;47.184;8.538;2023-08-31T02:33:26;14.90;99.90
7516;DHT22;3799;47.184;8.538;2023-08-31T02:35:54;15.20;99.90
7516;DHT22;3799;47.184;8.538;2023-08-31T02:38:27;15.30;99.90
7516;DHT22;3799;47.184;8.538;2023-08-31T02:41:08;15.20;99.90
7516;DHT22;3799;47.184;8.538;2023-08-31T02:43:36;15.00;99.90
7516;DHT22;3799;47.184;8.538;2023-08-31T02:46:03;15.30;99.90
7516;DHT22;3799;47.184;8.538;2023-08-31T02:48:34;15.40;99.90
7516;DHT22;3799;47.184;8.538;2023-08-31T02:51:16;15.20;99.90
7516;DHT22;3799;47.184;8.538;2023-08-31T02:53:43;15.10;99.90
7516;DHT22;3799;47.184;8.538;2023-08-31T02:56:11;15.40;99.90
7516;DHT22;3799;47.184;8.538;2023-08-31T02:58:38;15.10;99.90
7516;DHT22;3799;47.184;8.538;2023-08-31T03:01:11;15.30;99.90
7516;DHT22;3799;47.184;8.538;2023-08-31T03:03:42;15.10;99.90
7516;DHT22;3799;47.184;8.538;2023-08-31T03:06:18;14.90;99.90
7516;DHT22;3799;47.184;8.538;2023-08-31T03:08:45;15.20;99.90
7516;DHT22;3799;47.184;8.538;2023-08-31T03:11:15;15.20;99.90
7516;DHT22;3799;47.184;8.538;2023-08-31T03:13:42;15.20;99.90
7516;DHT22;3799;47.184;8.538;2023-08-31T03:16:10;15.30;99.90
7516;DHT22;3799;47.184;8.538;2023-08-31T03:18:37;14.90;99.90
7516;DHT22;3799;47.184;8.538;2023-08-31T03:21:05;15.10;99.90
7516;DHT22;3799;47.184;8.538;2023-08-31T03:23:32;15.30;99.90
7516;DHT22;3799;47.184;8.538;2023-08-31T03:25:59;15.00;99.90
7516;DHT22;3799;47.184;8.538;2023-08-31T03:28:27;15.10;99.90
7516;DHT22;3799;47.184;8.538;2023-08-31T03:30:56;15.10;99.90
7516;DHT22;3799;47.184;8.538;2023-08-31T03:33:40;15.10;99.90
7516;DHT22;3799;47.184;8.538;2023-08-31T03:36:07;15.00;99.90
7516;DHT22;3799;47.184;8.538;2023-08-31T03:38:37;15.10;99.90
7516;DHT22;3799;47.184;8.538;2023-08-31T03:41:16;15.10;99.90
7516;DHT22;3799;47.184;8.538;2023-08-31T03:43:46;14.80;99.90
7516;DHT22;3799;47.184;8.538;2023-08-31T03:46:13;15.20;99.90
7516;DHT22;3799;47.184;8.538;2023-08-31T03:48:41;15.20;99.90
7516;DHT22;3799;47.184;8.538;2023-08-31T03:51:08;15.10;99.90
7516;DHT22;3799;47.184;8.538;2023-08-31T03:53:38;15.00;99.90
7516;DHT22;3799;47.184;8.538;2023-08-31T03:56:22;14.80;99.90
7516;DHT22;3799;47.184;8.538;2023-08-31T03:58:50;14.90;99.90
7516;DHT22;3799;47.184;8.538;2023-08-31T04:01:20;14.90;99.90
7516;DHT22;3799;47.184;8.538;2023-08-31T04:03:48;15.10;99.90
7516;DHT22;3799;47.184;8.538;2023-08-31T04:06:16;14.90;99.90
7516;DHT22;3799;47.184;8.538;2023-08-31T04:08:55;14.80;99.90
7516;DHT22;3799;47.184;8.538;2023-08-31T04:11:27;14.60;99.90
7516;DHT22;3799;47.184;8.538;2023-08-31T04:13:54;14.60;99.90
7516;DHT22;3799;47.184;8.538;2023-08-31T04:16:22;14.70;99.90
7516;DHT22;3799;47.184;8.538;2023-08-31T04:19:09;14.50;99.90
7516;DHT22;3799;47.184;8.538;2023-08-31T04:21:59;14.30;99.90
7516;DHT22;3799;47.184;8.538;2023-08-31T04:24:27;14.50;99.90
7516;DHT22;3799;47.184;8.538;2023-08-31T04:26:56;14.40;99.90
7516;DHT22;3799;47.184;8.538;2023-08-31T04:29:23;14.40;99.90
7516;DHT22;3799;47.184;8.538;2023-08-31T04:31:53;14.40;99.90
7516;DHT22;3799;47.184;8.538;2023-08-31T04:34:26;14.30;99.90
7516;DHT22;3799;47.184;8.538;2023-08-31T04:36:54;14.50;99.90
7516;DHT22;3799;47.184;8.538;2023-08-31T04:39:21;14.30;99.90
7516;DHT22;3799;47.184;8.538;2023-08-31T04:41:49;14.40;99.90
7516;DHT22;3799;47.184;8.538;2023-08-31T04:44:16;14.60;99.90
7516;DHT22;3799;47.184;8.538;2023-08-31T04:46:44;14.10;99.90
7516;DHT22;3799;47.184;8.538;2023-08-31T04:49:13;14.40;99.90
7516;DHT22;3799;47.184;8.538;2023-08-31T04:51:44;14.10;99.90
7516;DHT22;3799;47.184;8.538;2023-08-31T04:54:13;14.40;99.90
7516;DHT22;3799;47.184;8.538;2023-08-31T04:56:53;14.50;99.90
7516;DHT22;3799;47.184;8.538;2023-08-31T04:59:20;14.60;99.90
7516;DHT22;3799;47.184;8.538;2023-08-31T05:01:47;14.30;99.90
7516;DHT22;3799;47.184;8.538;2023-08-31T05:04:17;14.50;99.90
7516;DHT22;3799;47.184;8.538;2023-08-31T05:06:44;14.30;99.90
7516;DHT22;3799;47.184;8.538;2023-08-31T05:09:12;14.40;99.90
7516;DHT22;3799;47.184;8.538;2023-08-31T05:11:40;14.50;99.90
7516;DHT22;3799;47.184;8.538;2023-08-31T05:14:08;14.30;99.90
7516;DHT22;3799;47.184;8.538;2023-08-31T05:16:35;14.70;99.90
7516;DHT22;3799;47.184;8.538;2023-08-31T05:19:03;14.40;99.90
7516;DHT22;3799;47.184;8.538;2023-08-31T05:21:30;14.80;99.90
7516;DHT22;3799;47.184;8.538;2023-08-31T05:24:24;14.60;99.90
7516;DHT22;3799;47.184;8.538;2023-08-31T05:26:51;14.80;99.90
7516;DHT22;3799;47.184;8.538;2023-08-31T05:29:19;14.70;99.90
7516;DHT22;3799;47.184;8.538;2023-08-31T05:31:48;14.80;99.90
7516;DHT22;3799;47.184;8.538;2023-08-31T05:34:16;15.00;99.90
7516;DHT22;3799;47.184;8.538;2023-08-31T05:36:52;14.80;99.90
7516;DHT22;3799;47.184;8.538;2023-08-31T05:39:20;14.80;99.90
7516;DHT22;3799;47.184;8.538;2023-08-31T05:42:00;15.00;99.90
7516;DHT22;3799;47.184;8.538;2023-08-31T05:44:31;14.70;99.90
7516;DHT22;3799;47.184;8.538;2023-08-31T05:46:59;15.00;99.90
7516;DHT22;3799;47.184;8.538;2023-08-31T05:49:26;14.90;99.90
7516;DHT22;3799;47.184;8.538;2023-08-31T05:51:55;15.00;99.90
7516;DHT22;3799;47.184;8.538;2023-08-31T05:54:23;15.10;99.90
7516;DHT22;3799;47.184;8.538;2023-08-31T05:56:57;15.30;99.90
7516;DHT22;3799;47.184;8.538;2023-08-31T05:59:24;15.40;99.90
7516;DHT22;3799;47.184;8.538;2023-08-31T06:01:57;15.50;99.90
7516;DHT22;3799;47.184;8.538;2023-08-31T06:04:25;15.50;99.90
7516;DHT22;3799;47.184;8.538;2023-08-31T06:06:55;15.50;99.90
7516;DHT22;3799;47.184;8.538;2023-08-31T06:09:25;15.50;99.90
7516;DHT22;3799;47.184;8.538;2023-08-31T06:11:55;15.50;99.90
7516;DHT22;3799;47.184;8.538;2023-08-31T06:14:31;15.70;99.90
7516;DHT22;3799;47.184;8.538;2023-08-31T06:17:00;15.60;99.90
7516;DHT22;3799;47.184;8.538;2023-08-31T06:19:28;15.80;99.90
7516;DHT22;3799;47.184;8.538;2023-08-31T06:21:55;15.70;99.90
7516;DHT22;3799;47.184;8.538;2023-08-31T06:24:23;15.80;99.90
7516;DHT22;3799;47.184;8.538;2023-08-31T06:26:51;16.00;99.90
7516;DHT22;3799;47.184;8.538;2023-08-31T06:29:18;15.80;99.90
7516;DHT22;3799;47.184;8.538;2023-08-31T06:31:51;16.10;99.90
7516;DHT22;3799;47.184;8.538;2023-08-31T06:34:18;16.20;99.90
7516;DHT22;3799;47.184;8.538;2023-08-31T06:36:45;16.20;99.90
7516;DHT22;3799;47.184;8.538;2023-08-31T06:39:12;16.10;99.90
7516;DHT22;3799;47.184;8.538;2023-08-31T06:41:39;16.00;99.90
7516;DHT22;3799;47.184;8.538;2023-08-31T06:44:07;16.30;99.90
7516;DHT22;3799;47.184;8.538;2023-08-31T06:46:34;16.30;99.90
7516;DHT22;3799;47.184;8.538;2023-08-31T06:49:05;16.20;99.90
7516;DHT22;3799;47.184;8.538;2023-08-31T06:51:33;16.30;99.90
7516;DHT22;3799;47.184;8.538;2023-08-31T06:54:00;16.30;99.90
7516;DHT22;3799;47.184;8.538;2023-08-31T06:56:35;16.40;99.90
7516;DHT22;3799;47.184;8.538;2023-08-31T06:59:02;16.40;99.90
7516;DHT22;3799;47.184;8.538;2023-08-31T07:01:30;16.30;99.90
7516;DHT22;3799;47.184;8.538;2023-08-31T07:04:00;16.30;99.90
7516;DHT22;3799;47.184;8.538;2023-08-31T07:06:28;16.20;99.90
7516;DHT22;3799;47.184;8.538;2023-08-31T07:08:56;16.30;99.90
7516;DHT22;3799;47.184;8.538;2023-08-31T07:11:23;16.40;99.90
7516;DHT22;3799;47.184;8.538;2023-08-31T07:13:53;16.50;99.90
7516;DHT22;3799;47.184;8.538;2023-08-31T07:16:20;16.40;99.90
7516;DHT22;3799;47.184;8.538;2023-08-31T07:18:48;16.50;99.90
7516;DHT22;3799;47.184;8.538;2023-08-31T07:21:19;16.30;99.90
7516;DHT22;3799;47.184;8.538;2023-08-31T07:23:49;16.50;99.90
7516;DHT22;3799;47.184;8.538;2023-08-31T07:26:23;16.70;99.90
7516;DHT22;3799;47.184;8.538;2023-08-31T07:28:52;16.50;99.90
7516;DHT22;3799;47.184;8.538;2023-08-31T07:31:20;16.80;99.90
7516;DHT22;3799;47.184;8.538;2023-08-31T07:33:47;17.00;99.90
7516;DHT22;3799;47.184;8.538;2023-08-31T07:36:15;16.80;99.90
7516;DHT22;3799;47.184;8.538;2023-08-31T07:38:43;16.60;99.90
7516;DHT22;3799;47.184;8.538;2023-08-31T07:41:13;16.90;99.90
7516;DHT22;3799;47.184;8.538;2023-08-31T07:43:41;17.20;99.90
7516;DHT22;3799;47.184;8.538;2023-08-31T07:46:24;17.20;99.90
7516;DHT22;3799;47.184;8.538;2023-08-31T07:48:54;17.10;99.90
7516;DHT22;3799;47.184;8.538;2023-08-31T07:51:30;17.30;99.90
7516;DHT22;3799;47.184;8.538;2023-08-31T07:53:59;17.30;99.90
7516;DHT22;3799;47.184;8.538;2023-08-31T07:56:26;17.60;99.90
7516;DHT22;3799;47.184;8.538;2023-08-31T07:58:54;17.30;99.90
7516;DHT22;3799;47.184;8.538;2023-08-31T08:01:21;17.80;99.90
7516;DHT22;3799;47.184;8.538;2023-08-31T08:03:49;17.60;99.90
7516;DHT22;3799;47.184;8.538;2023-08-31T08:06:16;17.70;99.90
7516;DHT22;3799;47.184;8.538;2023-08-31T08:08:44;17.90;99.90
7516;DHT22;3799;47.184;8.538;2023-08-31T08:11:13;18.10;99.90
7516;DHT22;3799;47.184;8.538;2023-08-31T08:13:43;18.10;99.90
7516;DHT22;3799;47.184;8.538;2023-08-31T08:16:10;18.20;99.90
7516;DHT22;3799;47.184;8.538;2023-08-31T08:18:38;18.10;99.90
7516;DHT22;3799;47.184;8.538;2023-08-31T08:21:05;18.30;99.90
7516;DHT22;3799;47.184;8.538;2023-08-31T08:23:32;18.60;99.90
7516;DHT22;3799;47.184;8.538;2023-08-31T08:26:00;18.10;99.90
7516;DHT22;3799;47.184;8.538;2023-08-31T08:28:27;18.40;99.90
7516;DHT22;3799;47.184;8.538;2023-08-31T08:30:55;18.50;99.90
7516;DHT22;3799;47.184;8.538;2023-08-31T08:33:23;18.40;99.90
7516;DHT22;3799;47.184;8.538;2023-08-31T08:35:50;18.70;99.90
7516;DHT22;3799;47.184;8.538;2023-08-31T08:38:17;18.40;99.90
7516;DHT22;3799;47.184;8.538;2023-08-31T08:40:49;18.70;99.90
7516;DHT22;3799;47.184;8.538;2023-08-31T08:43:25;18.70;99.90
7516;DHT22;3799;47.184;8.538;2023-08-31T08:45:54;18.70;99.90
7516;DHT22;3799;47.184;8.538;2023-08-31T08:48:22;19.10;99.90
7516;DHT22;3799;47.184;8.538;2023-08-31T08:51:03;19.10;99.90
7516;DHT22;3799;47.184;8.538;2023-08-31T08:53:31;19.30;99.90
7516;DHT22;3799;47.184;8.538;2023-08-31T08:55:58;19.40;99.90
7516;DHT22;3799;47.184;8.538;2023-08-31T08:58:26;19.40;99.90
7516;DHT22;3799;47.184;8.538;2023-08-31T09:00:54;19.30;99.90
7516;DHT22;3799;47.184;8.538;2023-08-31T09:03:24;19.50;99.90
7516;DHT22;3799;47.184;8.538;2023-08-31T09:05:54;19.50;99.90
7516;DHT22;3799;47.184;8.538;2023-08-31T09:08:28;19.00;99.90
7516;DHT22;3799;47.184;8.538;2023-08-31T09:10:56;19.20;99.90
7516;DHT22;3799;47.184;8.538;2023-08-31T09:13:39;19.20;99.90
7516;DHT22;3799;47.184;8.538;2023-08-31T09:16:29;19.10;99.90
7516;DHT22;3799;47.184;8.538;2023-08-31T09:18:58;19.10;99.90
7516;DHT22;3799;47.184;8.538;2023-08-31T09:21:38;19.00;99.90
7516;DHT22;3799;47.184;8.538;2023-08-31T09:24:11;19.20;99.90
7516;DHT22;3799;47.184;8.538;2023-08-31T09:26:43;19.20;99.90
7516;DHT22;3799;47.184;8.538;2023-08-31T09:29:16;19.20;99.90
7516;DHT22;3799;47.184;8.538;2023-08-31T09:31:45;19.40;99.90
7516;DHT22;3799;47.184;8.538;2023-08-31T09:34:32;19.40;99.90
7516;DHT22;3799;47.184;8.538;2023-08-31T09:37:05;19.40;99.90
7516;DHT22;3799;47.184;8.538;2023-08-31T09:39:39;19.40;99.90
7516;DHT22;3799;47.184;8.538;2023-08-31T09:42:06;19.20;99.90
7516;DHT22;3799;47.184;8.538;2023-08-31T09:44:40;19.30;99.90
7516;DHT22;3799;47.184;8.538;2023-08-31T09:47:08;19.10;99.90
7516;DHT22;3799;47.184;8.538;2023-08-31T09:49:38;18.80;99.90
7516;DHT22;3799;47.184;8.538;2023-08-31T09:52:07;19.10;99.90
7516;DHT22;3799;47.184;8.538;2023-08-31T09:54:36;19.00;99.90
7516;DHT22;3799;47.184;8.538;2023-08-31T09:57:05;19.30;99.90
7516;DHT22;3799;47.184;8.538;2023-08-31T09:59:32;19.30;99.90
7516;DHT22;3799;47.184;8.538;2023-08-31T10:02:05;19.70;99.90
7516;DHT22;3799;47.184;8.538;2023-08-31T10:04:34;19.80;99.90
7516;DHT22;3799;47.184;8.538;2023-08-31T10:07:04;20.10;99.90
7516;DHT22;3799;47.184;8.538;2023-08-31T10:09:33;20.20;99.90
7516;DHT22;3799;47.184;8.538;2023-08-31T10:12:00;20.40;99.90
7516;DHT22;3799;47.184;8.538;2023-08-31T10:14:30;20.70;99.90
7516;DHT22;3799;47.184;8.538;2023-08-31T10:17:01;21.00;99.90
7516;DHT22;3799;47.184;8.538;2023-08-31T10:19:33;21.10;99.90
7516;DHT22;3799;47.184;8.538;2023-08-31T10:22:01;21.10;99.90
7516;DHT22;3799;47.184;8.538;2023-08-31T10:25:01;21.10;99.90
7516;DHT22;3799;47.184;8.538;2023-08-31T10:27:43;21.10;98.60
7516;DHT22;3799;47.184;8.538;2023-08-31T10:30:27;21.00;99.30
7516;DHT22;3799;47.184;8.538;2023-08-31T10:35:48;21.10;99.00
7516;DHT22;3799;47.184;8.538;2023-08-31T10:38:25;21.10;98.00
7516;DHT22;3799;47.184;8.538;2023-08-31T10:41:03;21.10;96.40
7516;DHT22;3799;47.184;8.538;2023-08-31T10:43:53;21.20;95.60
7516;DHT22;3799;47.184;8.538;2023-08-31T10:49:01;21.40;94.40
7516;DHT22;3799;47.184;8.538;2023-08-31T10:51:32;21.50;93.20
7516;DHT22;3799;47.184;8.538;2023-08-31T10:54:29;21.50;93.60
7516;DHT22;3799;47.184;8.538;2023-08-31T10:59:49;21.60;93.90
7516;DHT22;3799;47.184;8.538;2023-08-31T11:02:42;21.70;93.90
7516;DHT22;3799;47.184;8.538;2023-08-31T11:05:11;21.90;95.00
7516;DHT22;3799;47.184;8.538;2023-08-31T11:07:44;22.10;94.60
7516;DHT22;3799;47.184;8.538;2023-08-31T11:12:49;22.30;91.10
7516;DHT22;3799;47.184;8.538;2023-08-31T11:15:19;22.40;89.70
7516;DHT22;3799;47.184;8.538;2023-08-31T11:17:48;22.40;87.20
7516;DHT22;3799;47.184;8.538;2023-08-31T11:20:21;22.50;89.90
7516;DHT22;3799;47.184;8.538;2023-08-31T11:22:50;22.50;87.50
7516;DHT22;3799;47.184;8.538;2023-08-31T11:25:23;22.60;86.80
7516;DHT22;3799;47.184;8.538;2023-08-31T11:27:57;22.70;77.50
7516;DHT22;3799;47.184;8.538;2023-08-31T11:30:31;22.60;78.10
7516;DHT22;3799;47.184;8.538;2023-08-31T11:33:04;22.70;78.70
7516;DHT22;3799;47.184;8.538;2023-08-31T11:35:37;22.70;80.40
7516;DHT22;3799;47.184;8.538;2023-08-31T11:38:05;22.80;80.30
7516;DHT22;3799;47.184;8.538;2023-08-31T11:40:33;22.90;80.30
7516;DHT22;3799;47.184;8.538;2023-08-31T11:43:04;22.90;78.80
7516;DHT22;3799;47.184;8.538;2023-08-31T11:45:36;22.80;77.80
7516;DHT22;3799;47.184;8.538;2023-08-31T11:48:04;22.70;79.20
7516;DHT22;3799;47.184;8.538;2023-08-31T11:50:32;22.80;80.70
7516;DHT22;3799;47.184;8.538;2023-08-31T11:52:59;22.90;79.60
7516;DHT22;3799;47.184;8.538;2023-08-31T11:55:28;23.00;76.70
7516;DHT22;3799;47.184;8.538;2023-08-31T11:57:56;23.10;75.40
7516;DHT22;3799;47.184;8.538;2023-08-31T12:00:26;23.20;74.70
7516;DHT22;3799;47.184;8.538;2023-08-31T12:03:00;23.10;74.00
7516;DHT22;3799;47.184;8.538;2023-08-31T12:05:28;23.00;74.60
7516;DHT22;3799;47.184;8.538;2023-08-31T12:07:56;22.90;72.60
7516;DHT22;3799;47.184;8.538;2023-08-31T12:10:24;22.70;70.20
7516;DHT22;3799;47.184;8.538;2023-08-31T12:12:52;22.60;70.40
7516;DHT22;3799;47.184;8.538;2023-08-31T12:15:20;22.50;71.80
7516;DHT22;3799;47.184;8.538;2023-08-31T12:17:50;22.50;71.40
7516;DHT22;3799;47.184;8.538;2023-08-31T12:20:25;22.30;70.80
7516;DHT22;3799;47.184;8.538;2023-08-31T12:22:59;22.20;73.00
7516;DHT22;3799;47.184;8.538;2023-08-31T12:25:26;22.00;71.70
7516;DHT22;3799;47.184;8.538;2023-08-31T12:27:56;21.90;72.40
7516;DHT22;3799;47.184;8.538;2023-08-31T12:30:24;21.90;74.10
7516;DHT22;3799;47.184;8.538;2023-08-31T12:32:54;21.90;75.30
7516;DHT22;3799;47.184;8.538;2023-08-31T12:35:21;22.00;75.60
7516;DHT22;3799;47.184;8.538;2023-08-31T12:37:48;22.00;76.80
7516;DHT22;3799;47.184;8.538;2023-08-31T12:40:15;22.00;76.30
7516;DHT22;3799;47.184;8.538;2023-08-31T12:42:46;22.00;77.10
7516;DHT22;3799;47.184;8.538;2023-08-31T12:45:13;22.10;78.50
7516;DHT22;3799;47.184;8.538;2023-08-31T12:47:40;22.20;78.20
7516;DHT22;3799;47.184;8.538;2023-08-31T12:50:08;22.20;78.40
7516;DHT22;3799;47.184;8.538;2023-08-31T12:52:35;22.30;77.00
7516;DHT22;3799;47.184;8.538;2023-08-31T12:55:02;22.40;77.50
7516;DHT22;3799;47.184;8.538;2023-08-31T12:57:32;22.50;76.00
7516;DHT22;3799;47.184;8.538;2023-08-31T13:00:02;22.50;74.30
7516;DHT22;3799;47.184;8.538;2023-08-31T13:02:36;22.60;73.10
7516;DHT22;3799;47.184;8.538;2023-08-31T13:05:07;22.70;72.50
7516;DHT22;3799;47.184;8.538;2023-08-31T13:07:38;22.90;72.20
7516;DHT22;3799;47.184;8.538;2023-08-31T13:10:06;22.90;72.10
7516;DHT22;3799;47.184;8.538;2023-08-31T13:12:34;22.90;71.50
7516;DHT22;3799;47.184;8.538;2023-08-31T13:15:01;22.90;70.40
7516;DHT22;3799;47.184;8.538;2023-08-31T13:17:29;22.70;71.90
7516;DHT22;3799;47.184;8.538;2023-08-31T13:19:59;22.80;71.50
7516;DHT22;3799;47.184;8.538;2023-08-31T13:22:28;22.80;69.40
7516;DHT22;3799;47.184;8.538;2023-08-31T13:24:55;22.70;67.80
7516;DHT22;3799;47.184;8.538;2023-08-31T13:27:23;22.70;67.00
7516;DHT22;3799;47.184;8.538;2023-08-31T13:29:52;22.70;67.20
7516;DHT22;3799;47.184;8.538;2023-08-31T13:32:20;22.70;67.10
7516;DHT22;3799;47.184;8.538;2023-08-31T13:34:51;22.60;66.50
7516;DHT22;3799;47.184;8.538;2023-08-31T13:37:21;22.50;68.10
7516;DHT22;3799;47.184;8.538;2023-08-31T13:39:50;22.50;66.90
7516;DHT22;3799;47.184;8.538;2023-08-31T13:42:23;22.50;66.00
7516;DHT22;3799;47.184;8.538;2023-08-31T13:44:53;22.40;63.90
7516;DHT22;3799;47.184;8.538;2023-08-31T13:47:22;22.20;65.10
7516;DHT22;3799;47.184;8.538;2023-08-31T13:49:54;22.20;65.50
7516;DHT22;3799;47.184;8.538;2023-08-31T13:52:22;22.10;66.10
7516;DHT22;3799;47.184;8.538;2023-08-31T13:54:49;22.20;67.20
7516;DHT22;3799;47.184;8.538;2023-08-31T13:57:16;22.20;67.70
7516;DHT22;3799;47.184;8.538;2023-08-31T13:59:45;22.20;68.30
7516;DHT22;3799;47.184;8.538;2023-08-31T14:02:14;22.30;69.40
7516;DHT22;3799;47.184;8.538;2023-08-31T14:04:42;22.40;69.60
7516;DHT22;3799;47.184;8.538;2023-08-31T14:07:10;22.50;67.40
7516;DHT22;3799;47.184;8.538;2023-08-31T14:09:37;22.50;66.10
7516;DHT22;3799;47.184;8.538;2023-08-31T14:12:05;22.40;64.60
7516;DHT22;3799;47.184;8.538;2023-08-31T14:14:44;22.30;64.60
7516;DHT22;3799;47.184;8.538;2023-08-31T14:17:13;22.20;65.60
7516;DHT22;3799;47.184;8.538;2023-08-31T14:19:43;22.00;66.20
7516;DHT22;3799;47.184;8.538;2023-08-31T14:22:10;22.10;67.20
7516;DHT22;3799;47.184;8.538;2023-08-31T14:24:37;22.10;67.50
7516;DHT22;3799;47.184;8.538;2023-08-31T14:27:06;22.10;67.50
7516;DHT22;3799;47.184;8.538;2023-08-31T14:29:36;22.10;68.10
7516;DHT22;3799;47.184;8.538;2023-08-31T14:32:04;22.10;67.30
7516;DHT22;3799;47.184;8.538;2023-08-31T14:34:34;22.10;66.10
7516;DHT22;3799;47.184;8.538;2023-08-31T14:37:07;22.10;65.50
7516;DHT22;3799;47.184;8.538;2023-08-31T14:39:37;22.10;66.10
7516;DHT22;3799;47.184;8.538;2023-08-31T14:42:10;22.20;66.50
7516;DHT22;3799;47.184;8.538;2023-08-31T14:44:38;22.20;66.50
7516;DHT22;3799;47.184;8.538;2023-08-31T14:47:06;22.30;66.10
7516;DHT22;3799;47.184;8.538;2023-08-31T14:49:38;22.30;66.70
7516;DHT22;3799;47.184;8.538;2023-08-31T14:52:33;22.40;66.50
7516;DHT22;3799;47.184;8.538;2023-08-31T14:55:07;22.40;65.50
7516;DHT22;3799;47.184;8.538;2023-08-31T14:57:37;22.40;65.50
7516;DHT22;3799;47.184;8.538;2023-08-31T15:00:11;22.40;65.60
7516;DHT22;3799;47.184;8.538;2023-08-31T15:02:42;22.40;66.40
7516;DHT22;3799;47.184;8.538;2023-08-31T15:05:09;22.40;66.10
7516;DHT22;3799;47.184;8.538;2023-08-31T15:07:39;22.40;65.60
7516;DHT22;3799;47.184;8.538;2023-08-31T15:10:08;22.30;64.20
7516;DHT22;3799;47.184;8.538;2023-08-31T15:12:37;22.20;64.50
7516;DHT22;3799;47.184;8.538;2023-08-31T15:15:12;22.00;65.50
7516;DHT22;3799;47.184;8.538;2023-08-31T15:17:40;21.90;67.70
7516;DHT22;3799;47.184;8.538;2023-08-31T15:20:07;21.80;70.20
7516;DHT22;3799;47.184;8.538;2023-08-31T15:22:37;21.60;70.70
7516;DHT22;3799;47.184;8.538;2023-08-31T15:25:04;21.50;70.80
7516;DHT22;3799;47.184;8.538;2023-08-31T15:27:32;21.40;68.70
7516;DHT22;3799;47.184;8.538;2023-08-31T15:30:00;21.30;68.60
7516;DHT22;3799;47.184;8.538;2023-08-31T15:32:28;21.20;69.20
7516;DHT22;3799;47.184;8.538;2023-08-31T15:34:55;21.20;71.10
7516;DHT22;3799;47.184;8.538;2023-08-31T15:37:23;21.10;73.00
7516;DHT22;3799;47.184;8.538;2023-08-31T15:39:59;21.20;72.30
7516;DHT22;3799;47.184;8.538;2023-08-31T15:42:27;21.20;71.70
7516;DHT22;3799;47.184;8.538;2023-08-31T15:44:55;21.30;71.60
7516;DHT22;3799;47.184;8.538;2023-08-31T15:47:22;21.40;71.50
7516;DHT22;3799;47.184;8.538;2023-08-31T15:49:52;21.40;71.30
7516;DHT22;3799;47.184;8.538;2023-08-31T15:52:19;21.60;71.20
7516;DHT22;3799;47.184;8.538;2023-08-31T15:54:46;21.70;70.60
7516;DHT22;3799;47.184;8.538;2023-08-31T15:57:19;21.80;71.20
7516;DHT22;3799;47.184;8.538;2023-08-31T15:59:47;21.90;71.20
7516;DHT22;3799;47.184;8.538;2023-08-31T16:02:15;22.00;69.30
7516;DHT22;3799;47.184;8.538;2023-08-31T16:04:43;21.90;68.80
7516;DHT22;3799;47.184;8.538;2023-08-31T16:07:13;22.00;69.60
7516;DHT22;3799;47.184;8.538;2023-08-31T16:09:43;22.00;70.10
7516;DHT22;3799;47.184;8.538;2023-08-31T16:12:14;22.00;69.30
7516;DHT22;3799;47.184;8.538;2023-08-31T16:14:41;22.10;69.90
7516;DHT22;3799;47.184;8.538;2023-08-31T16:17:08;22.20;69.80
7516;DHT22;3799;47.184;8.538;2023-08-31T16:19:36;22.20;67.20
7516;DHT22;3799;47.184;8.538;2023-08-31T16:22:04;22.20;66.30
7516;DHT22;3799;47.184;8.538;2023-08-31T16:24:32;22.10;66.10
7516;DHT22;3799;47.184;8.538;2023-08-31T16:27:07;22.00;67.00
7516;DHT22;3799;47.184;8.538;2023-08-31T16:29:35;21.90;68.40
7516;DHT22;3799;47.184;8.538;2023-08-31T16:32:18;21.90;70.30
7516;DHT22;3799;47.184;8.538;2023-08-31T16:34:50;21.90;72.10
7516;DHT22;3799;47.184;8.538;2023-08-31T16:37:21;22.00;73.40
7516;DHT22;3799;47.184;8.538;2023-08-31T16:39:55;22.00;73.50